sensor_id;sensor_type;location;lat;lon;timestamp;pressure;altitude;pressure_sealevel;temperature;humidity
41234;BME280;26968;42.686;23.352;2023-10-31T00:01:09;95457.06;;;12.81;62.90
41234;BME280;26968;42.686;23.352;2023-10-31T00:03:34;95465.16;;;12.95;63.03
41234;BME280;26968;42.686;23.352;2023-10-31T00:05:59;95458.41;;;12.45;63.99
41234;BME280;26968;42.686;23.352;2023-10-31T00:08:25;95458.25;;;12.65;63.67
41234;BME280;26968;42.686;23.352;2023-10-31T00:10:50;95464.78;;;12.77;63.40
41234;BME280;26968;42.686;23.352;2023-10-31T00:13:16;95465.53;;;12.83;63.44
41234;BME280;26968;42.686;23.352;2023-10-31T00:15:41;95459.72;;;12.76;63.49
41234;BME280;26968;42.686;23.352;2023-10-31T00:18:07;95460.31;;;12.73;63.37
41234;BME280;26968;42.686;23.352;2023-10-31T00:20:32;95432.19;;;12.62;63.25
41234;BME280;26968;42.686;23.352;2023-10-31T00:22:58;95460.53;;;12.76;63.33
41234;BME280;26968;42.686;23.352;2023-10-31T00:25:23;95424.34;;;12.47;63.47
41234;BME280;26968;42.686;23.352;2023-10-31T00:27:49;95441.22;;;12.66;63.45
41234;BME280;26968;42.686;23.352;2023-10-31T00:30:14;95418.00;;;12.43;63.43
41234;BME280;26968;42.686;23.352;2023-10-31T00:32:40;95433.31;;;12.56;63.38
41234;BME280;26968;42.686;23.352;2023-10-31T00:35:05;95422.16;;;12.54;63.74
41234;BME280;26968;42.686;23.352;2023-10-31T00:37:31;95424.59;;;12.50;63.84
41234;BME280;26968;42.686;23.352;2023-10-31T00:39:56;95412.44;;;12.39;63.60
41234;BME280;26968;42.686;23.352;2023-10-31T00:42:22;95439.16;;;12.58;63.53
41234;BME280;26968;42.686;23.352;2023-10-31T00:44:47;95446.34;;;12.57;63.75
41234;BME280;26968;42.686;23.352;2023-10-31T00:47:13;95447.47;;;12.46;63.87
41234;BME280;26968;42.686;23.352;2023-10-31T00:49:39;95444.81;;;12.46;64.33
41234;BME280;26968;42.686;23.352;2023-10-31T00:52:05;95443.47;;;12.49;64.31
41234;BME280;26968;42.686;23.352;2023-10-31T00:54:30;95387.72;;;12.05;64.62
41234;BME280;26968;42.686;23.352;2023-10-31T00:56:56;95434.78;;;12.38;64.21
41234;BME280;26968;42.686;23.352;2023-10-31T00:59:21;95399.00;;;12.25;64.36
41234;BME280;26968;42.686;23.352;2023-10-31T01:01:47;95410.41;;;12.26;64.25
41234;BME280;26968;42.686;23.352;2023-10-31T01:04:12;95287.00;;;11.25;64.59
41234;BME280;26968;42.686;23.352;2023-10-31T01:06:41;95425.81;;;12.29;65.08
41234;BME280;26968;42.686;23.352;2023-10-31T01:09:07;95406.75;;;12.17;64.77
41234;BME280;26968;42.686;23.352;2023-10-31T01:11:33;95409.16;;;12.18;64.92
41234;BME280;26968;42.686;23.352;2023-10-31T01:13:58;95408.94;;;12.10;65.28
41234;BME280;26968;42.686;23.352;2023-10-31T01:16:23;95381.63;;;11.99;65.35
41234;BME280;26968;42.686;23.352;2023-10-31T01:18:49;95362.00;;;11.95;65.14
41234;BME280;26968;42.686;23.352;2023-10-31T01:21:14;95420.31;;;12.20;65.16
41234;BME280;26968;42.686;23.352;2023-10-31T01:23:40;95419.31;;;12.11;65.86
41234;BME280;26968;42.686;23.352;2023-10-31T01:26:05;95392.09;;;11.85;65.93
41234;BME280;26968;42.686;23.352;2023-10-31T01:28:30;95377.53;;;11.78;66.10
41234;BME280;26968;42.686;23.352;2023-10-31T01:30:56;95387.03;;;11.89;66.26
41234;BME280;26968;42.686;23.352;2023-10-31T01:33:21;95409.91;;;11.85;66.56
41234;BME280;26968;42.686;23.352;2023-10-31T01:35:47;95403.78;;;11.89;66.42
41234;BME280;26968;42.686;23.352;2023-10-31T01:38:13;95362.16;;;11.75;66.25
41234;BME280;26968;42.686;23.352;2023-10-31T01:40:38;95388.91;;;11.88;66.02
41234;BME280;26968;42.686;23.352;2023-10-31T01:43:03;95350.84;;;11.49;66.47
41234;BME280;26968;42.686;23.352;2023-10-31T01:45:29;95398.03;;;11.62;67.01
41234;BME280;26968;42.686;23.352;2023-10-31T01:47:55;95398.03;;;11.62;67.16
41234;BME280;26968;42.686;23.352;2023-10-31T01:50:20;95298.03;;;10.98;66.94
41234;BME280;26968;42.686;23.352;2023-10-31T01:52:46;95318.09;;;11.19;66.87
41234;BME280;26968;42.686;23.352;2023-10-31T01:55:12;95404.09;;;11.78;66.77
41234;BME280;26968;42.686;23.352;2023-10-31T01:57:37;95400.13;;;11.75;66.83
41234;BME280;26968;42.686;23.352;2023-10-31T02:00:04;95381.09;;;11.53;67.11
41234;BME280;26968;42.686;23.352;2023-10-31T02:02:32;95396.69;;;11.75;66.74
41234;BME280;26968;42.686;23.352;2023-10-31T02:05:00;95364.88;;;11.54;66.73
41234;BME280;26968;42.686;23.352;2023-10-31T02:07:25;95380.78;;;11.59;66.58
41234;BME280;26968;42.686;23.352;2023-10-31T02:09:50;95375.97;;;11.67;66.41
41234;BME280;26968;42.686;23.352;2023-10-31T02:12:43;95388.38;;;11.86;66.18
41234;BME280;26968;42.686;23.352;2023-10-31T02:15:09;95393.41;;;11.88;66.22
41234;BME280;26968;42.686;23.352;2023-10-31T02:17:34;95380.19;;;11.78;66.15
41234;BME280;26968;42.686;23.352;2023-10-31T02:19:59;95350.97;;;11.68;66.07
41234;BME280;26968;42.686;23.352;2023-10-31T02:22:25;95376.19;;;11.80;66.03
41234;BME280;26968;42.686;23.352;2023-10-31T02:24:50;95350.44;;;11.71;65.78
41234;BME280;26968;42.686;23.352;2023-10-31T02:27:16;95361.88;;;11.71;66.06
41234;BME280;26968;42.686;23.352;2023-10-31T02:29:41;95380.19;;;11.73;65.95
41234;BME280;26968;42.686;23.352;2023-10-31T02:32:07;95354.53;;;11.53;66.21
41234;BME280;26968;42.686;23.352;2023-10-31T02:34:32;95320.88;;;11.43;66.15
41234;BME280;26968;42.686;23.352;2023-10-31T02:36:59;95346.25;;;11.65;65.80
41234;BME280;26968;42.686;23.352;2023-10-31T02:39:24;95366.34;;;11.81;65.79
41234;BME280;26968;42.686;23.352;2023-10-31T02:41:50;95316.94;;;11.36;66.32
41234;BME280;26968;42.686;23.352;2023-10-31T02:44:16;95316.16;;;11.35;66.10
41234;BME280;26968;42.686;23.352;2023-10-31T02:46:41;95375.16;;;11.71;66.44
41234;BME280;26968;42.686;23.352;2023-10-31T02:49:06;95351.06;;;11.57;66.32
41234;BME280;26968;42.686;23.352;2023-10-31T02:51:34;95298.44;;;11.20;65.89
41234;BME280;26968;42.686;23.352;2023-10-31T02:53:59;95331.28;;;11.30;66.26
41234;BME280;26968;42.686;23.352;2023-10-31T02:56:25;95388.00;;;11.54;66.64
41234;BME280;26968;42.686;23.352;2023-10-31T02:58:50;95372.06;;;11.54;66.32
41234;BME280;26968;42.686;23.352;2023-10-31T03:01:16;95365.53;;;11.36;66.88
41234;BME280;26968;42.686;23.352;2023-10-31T03:03:43;95367.63;;;11.39;67.17
41234;BME280;26968;42.686;23.352;2023-10-31T03:06:08;95368.94;;;11.42;66.90
41234;BME280;26968;42.686;23.352;2023-10-31T03:08:33;95333.47;;;11.17;66.69
41234;BME280;26968;42.686;23.352;2023-10-31T03:10:59;95342.69;;;11.35;66.58
41234;BME280;26968;42.686;23.352;2023-10-31T03:13:24;95349.31;;;11.38;66.41
41234;BME280;26968;42.686;23.352;2023-10-31T03:15:50;95283.66;;;10.99;66.25
41234;BME280;26968;42.686;23.352;2023-10-31T03:18:15;95376.84;;;11.52;66.53
41234;BME280;26968;42.686;23.352;2023-10-31T03:20:43;95388.75;;;11.59;66.27
41234;BME280;26968;42.686;23.352;2023-10-31T03:23:10;95369.97;;;11.51;65.95
41234;BME280;26968;42.686;23.352;2023-10-31T03:25:36;95304.66;;;10.96;66.29
41234;BME280;26968;42.686;23.352;2023-10-31T03:28:02;95368.69;;;11.43;66.62
41234;BME280;26968;42.686;23.352;2023-10-31T03:30:27;95334.78;;;11.25;66.30
41234;BME280;26968;42.686;23.352;2023-10-31T03:32:52;95322.06;;;11.17;66.28
41234;BME280;26968;42.686;23.352;2023-10-31T03:35:18;95333.53;;;11.12;66.79
41234;BME280;26968;42.686;23.352;2023-10-31T03:37:43;95318.75;;;10.86;66.89
41234;BME280;26968;42.686;23.352;2023-10-31T03:40:09;95323.25;;;10.91;67.42
41234;BME280;26968;42.686;23.352;2023-10-31T03:42:35;95350.50;;;11.11;67.38
41234;BME280;26968;42.686;23.352;2023-10-31T03:45:00;95305.72;;;10.95;67.05
41234;BME280;26968;42.686;23.352;2023-10-31T03:47:26;95313.75;;;10.79;67.44
41234;BME280;26968;42.686;23.352;2023-10-31T03:49:51;95347.13;;;10.96;66.91
41234;BME280;26968;42.686;23.352;2023-10-31T03:52:16;95344.72;;;10.94;67.58
41234;BME280;26968;42.686;23.352;2023-10-31T03:54:42;95338.31;;;11.00;67.09
41234;BME280;26968;42.686;23.352;2023-10-31T03:57:07;95374.13;;;11.08;67.10
41234;BME280;26968;42.686;23.352;2023-10-31T03:59:33;95365.44;;;10.97;67.34
41234;BME280;26968;42.686;23.352;2023-10-31T04:01:58;95333.38;;;10.78;67.38
41234;BME280;26968;42.686;23.352;2023-10-31T04:04:23;95357.75;;;10.91;67.47
41234;BME280;26968;42.686;23.352;2023-10-31T04:06:49;95348.50;;;10.73;67.38
41234;BME280;26968;42.686;23.352;2023-10-31T04:09:14;95328.66;;;10.60;67.90
41234;BME280;26968;42.686;23.352;2023-10-31T04:11:40;95363.59;;;10.88;67.89
41234;BME280;26968;42.686;23.352;2023-10-31T04:14:06;95361.75;;;10.88;67.74
41234;BME280;26968;42.686;23.352;2023-10-31T04:16:32;95326.75;;;10.71;67.21
41234;BME280;26968;42.686;23.352;2023-10-31T04:19:02;95322.78;;;10.73;66.84
41234;BME280;26968;42.686;23.352;2023-10-31T04:21:27;95282.81;;;10.50;66.69
41234;BME280;26968;42.686;23.352;2023-10-31T04:23:53;95235.44;;;10.02;66.75
41234;BME280;26968;42.686;23.352;2023-10-31T04:26:18;95301.09;;;10.56;67.47
41234;BME280;26968;42.686;23.352;2023-10-31T04:28:44;95293.19;;;10.31;67.46
41234;BME280;26968;42.686;23.352;2023-10-31T04:31:09;95328.41;;;10.52;68.70
41234;BME280;26968;42.686;23.352;2023-10-31T04:33:34;95214.81;;;9.89;67.73
41234;BME280;26968;42.686;23.352;2023-10-31T04:36:00;95262.72;;;10.23;68.04
41234;BME280;26968;42.686;23.352;2023-10-31T04:38:27;95314.59;;;10.55;68.30
41234;BME280;26968;42.686;23.352;2023-10-31T04:40:52;95223.81;;;9.98;68.00
41234;BME280;26968;42.686;23.352;2023-10-31T04:43:18;95329.16;;;10.62;68.28
41234;BME280;26968;42.686;23.352;2023-10-31T04:45:43;95327.38;;;10.32;68.30
41234;BME280;26968;42.686;23.352;2023-10-31T04:48:09;95335.88;;;10.24;69.18
41234;BME280;26968;42.686;23.352;2023-10-31T04:50:34;95326.88;;;10.25;69.05
41234;BME280;26968;42.686;23.352;2023-10-31T04:53:00;95319.97;;;10.24;68.82
41234;BME280;26968;42.686;23.352;2023-10-31T04:55:25;95358.94;;;10.34;68.84
41234;BME280;26968;42.686;23.352;2023-10-31T04:57:51;95369.00;;;10.42;68.94
41234;BME280;26968;42.686;23.352;2023-10-31T05:00:16;95358.09;;;10.54;69.24
41234;BME280;26968;42.686;23.352;2023-10-31T05:02:42;95351.22;;;10.48;68.93
41234;BME280;26968;42.686;23.352;2023-10-31T05:05:08;95353.88;;;10.48;68.38
41234;BME280;26968;42.686;23.352;2023-10-31T05:07:33;95324.72;;;10.32;68.11
41234;BME280;26968;42.686;23.352;2023-10-31T05:09:59;95325.25;;;10.39;67.59
41234;BME280;26968;42.686;23.352;2023-10-31T05:12:24;95367.38;;;10.61;67.57
41234;BME280;26968;42.686;23.352;2023-10-31T05:14:50;95341.44;;;10.13;69.23
41234;BME280;26968;42.686;23.352;2023-10-31T05:17:15;95309.13;;;9.95;69.23
41234;BME280;26968;42.686;23.352;2023-10-31T05:19:41;95360.00;;;10.43;68.80
41234;BME280;26968;42.686;23.352;2023-10-31T05:22:06;95262.47;;;9.94;68.81
41234;BME280;26968;42.686;23.352;2023-10-31T05:24:31;95319.69;;;10.16;68.93
41234;BME280;26968;42.686;23.352;2023-10-31T05:26:57;95326.03;;;10.15;68.64
41234;BME280;26968;42.686;23.352;2023-10-31T05:29:23;95338.81;;;10.28;68.97
41234;BME280;26968;42.686;23.352;2023-10-31T05:31:48;95362.34;;;10.55;68.94
41234;BME280;26968;42.686;23.352;2023-10-31T05:34:14;95372.16;;;10.64;68.43
41234;BME280;26968;42.686;23.352;2023-10-31T05:36:39;95328.44;;;10.31;68.38
41234;BME280;26968;42.686;23.352;2023-10-31T05:39:05;95381.94;;;10.64;68.16
41234;BME280;26968;42.686;23.352;2023-10-31T05:41:34;95377.22;;;10.51;69.16
41234;BME280;26968;42.686;23.352;2023-10-31T05:43:59;95339.06;;;10.36;68.56
41234;BME280;26968;42.686;23.352;2023-10-31T05:46:24;95345.63;;;10.54;68.54
41234;BME280;26968;42.686;23.352;2023-10-31T05:48:51;95380.88;;;10.75;67.91
41234;BME280;26968;42.686;23.352;2023-10-31T05:51:18;95349.31;;;10.73;67.74
41234;BME280;26968;42.686;23.352;2023-10-31T05:53:45;95376.06;;;10.87;67.36
41234;BME280;26968;42.686;23.352;2023-10-31T05:56:14;95381.63;;;10.86;67.11
41234;BME280;26968;42.686;23.352;2023-10-31T05:58:41;95386.16;;;10.90;66.86
41234;BME280;26968;42.686;23.352;2023-10-31T06:01:07;95376.66;;;10.59;67.21
41234;BME280;26968;42.686;23.352;2023-10-31T06:03:33;95384.91;;;10.37;68.20
41234;BME280;26968;42.686;23.352;2023-10-31T06:05:59;95388.88;;;10.34;67.40
41234;BME280;26968;42.686;23.352;2023-10-31T06:08:24;95328.44;;;10.01;67.20
41234;BME280;26968;42.686;23.352;2023-10-31T06:10:53;95378.00;;;10.46;66.89
41234;BME280;26968;42.686;23.352;2023-10-31T06:13:18;95426.50;;;10.72;66.52
41234;BME280;26968;42.686;23.352;2023-10-31T06:15:44;95383.59;;;10.44;66.01
41234;BME280;26968;42.686;23.352;2023-10-31T06:18:09;95386.75;;;10.47;65.58
41234;BME280;26968;42.686;23.352;2023-10-31T06:20:35;95370.59;;;10.23;66.68
41234;BME280;26968;42.686;23.352;2023-10-31T06:23:01;95402.66;;;10.57;66.83
41234;BME280;26968;42.686;23.352;2023-10-31T06:25:29;95382.75;;;10.54;66.74
41234;BME280;26968;42.686;23.352;2023-10-31T06:27:55;95396.81;;;10.75;66.70
41234;BME280;26968;42.686;23.352;2023-10-31T06:30:20;95386.72;;;10.67;66.64
41234;BME280;26968;42.686;23.352;2023-10-31T06:32:46;95367.38;;;10.61;66.41
41234;BME280;26968;42.686;23.352;2023-10-31T06:35:11;95374.25;;;10.72;66.29
41234;BME280;26968;42.686;23.352;2023-10-31T06:37:37;95408.63;;;11.08;65.98
41234;BME280;26968;42.686;23.352;2023-10-31T06:40:04;95408.06;;;11.16;66.14
41234;BME280;26968;42.686;23.352;2023-10-31T06:42:30;95350.84;;;10.84;65.82
41234;BME280;26968;42.686;23.352;2023-10-31T06:44:55;95408.81;;;11.32;65.98
41234;BME280;26968;42.686;23.352;2023-10-31T06:47:21;95309.75;;;10.82;66.01
41234;BME280;26968;42.686;23.352;2023-10-31T06:49:46;95369.41;;;10.95;66.90
41234;BME280;26968;42.686;23.352;2023-10-31T06:52:12;95270.06;;;10.57;66.51
41234;BME280;26968;42.686;23.352;2023-10-31T06:54:37;95373.72;;;11.40;66.29
41234;BME280;26968;42.686;23.352;2023-10-31T06:57:03;95318.66;;;11.11;65.81
41234;BME280;26968;42.686;23.352;2023-10-31T06:59:29;95389.53;;;11.65;65.90
41234;BME280;26968;42.686;23.352;2023-10-31T07:01:54;95357.75;;;11.45;65.27
41234;BME280;26968;42.686;23.352;2023-10-31T07:04:20;95386.28;;;11.78;64.99
41234;BME280;26968;42.686;23.352;2023-10-31T07:06:45;95359.72;;;11.78;64.60
41234;BME280;26968;42.686;23.352;2023-10-31T07:09:11;95392.88;;;11.86;65.12
41234;BME280;26968;42.686;23.352;2023-10-31T07:11:36;95376.41;;;11.84;64.86
41234;BME280;26968;42.686;23.352;2023-10-31T07:14:02;95371.31;;;11.92;64.61
41234;BME280;26968;42.686;23.352;2023-10-31T07:16:28;95356.63;;;12.00;64.41
41234;BME280;26968;42.686;23.352;2023-10-31T07:18:54;95358.47;;;12.05;64.48
41234;BME280;26968;42.686;23.352;2023-10-31T07:21:20;95291.19;;;11.75;64.12
41234;BME280;26968;42.686;23.352;2023-10-31T07:23:45;95367.91;;;12.21;64.00
41234;BME280;26968;42.686;23.352;2023-10-31T07:26:11;95345.13;;;12.10;63.92
41234;BME280;26968;42.686;23.352;2023-10-31T07:28:36;95332.28;;;11.88;64.54
41234;BME280;26968;42.686;23.352;2023-10-31T07:31:02;95372.53;;;12.39;64.52
41234;BME280;26968;42.686;23.352;2023-10-31T07:33:27;95380.53;;;12.39;64.46
41234;BME280;26968;42.686;23.352;2023-10-31T07:35:53;95334.56;;;12.05;64.46
41234;BME280;26968;42.686;23.352;2023-10-31T07:38:18;95313.75;;;12.12;64.18
41234;BME280;26968;42.686;23.352;2023-10-31T07:40:44;95359.44;;;12.48;64.06
41234;BME280;26968;42.686;23.352;2023-10-31T07:43:09;95377.84;;;12.68;64.09
41234;BME280;26968;42.686;23.352;2023-10-31T07:45:34;95370.38;;;12.70;64.05
41234;BME280;26968;42.686;23.352;2023-10-31T07:48:01;95335.53;;;12.71;63.68
41234;BME280;26968;42.686;23.352;2023-10-31T07:50:27;95325.94;;;12.70;64.07
41234;BME280;26968;42.686;23.352;2023-10-31T07:52:52;95308.56;;;12.78;63.72
41234;BME280;26968;42.686;23.352;2023-10-31T07:55:18;95323.47;;;12.79;64.27
41234;BME280;26968;42.686;23.352;2023-10-31T07:57:44;95306.53;;;12.70;64.69
41234;BME280;26968;42.686;23.352;2023-10-31T08:00:11;95291.00;;;12.77;64.25
41234;BME280;26968;42.686;23.352;2023-10-31T08:02:36;95300.47;;;12.88;64.29
41234;BME280;26968;42.686;23.352;2023-10-31T08:05:02;95311.72;;;13.04;64.45
41234;BME280;26968;42.686;23.352;2023-10-31T08:07:27;95330.22;;;13.19;64.37
41234;BME280;26968;42.686;23.352;2023-10-31T08:09:55;95270.75;;;13.00;64.25
41234;BME280;26968;42.686;23.352;2023-10-31T08:12:21;95319.28;;;13.39;64.29
41234;BME280;26968;42.686;23.352;2023-10-31T08:14:47;95304.44;;;13.33;64.44
41234;BME280;26968;42.686;23.352;2023-10-31T08:17:12;95318.78;;;13.37;64.64
41234;BME280;26968;42.686;23.352;2023-10-31T08:19:38;95316.91;;;13.57;64.56
41234;BME280;26968;42.686;23.352;2023-10-31T08:22:03;95320.44;;;13.71;64.66
41234;BME280;26968;42.686;23.352;2023-10-31T08:24:28;95301.06;;;13.65;64.33
41234;BME280;26968;42.686;23.352;2023-10-31T08:26:54;95297.72;;;13.73;64.29
41234;BME280;26968;42.686;23.352;2023-10-31T08:29:19;95291.03;;;13.76;64.32
41234;BME280;26968;42.686;23.352;2023-10-31T08:31:45;95289.81;;;13.87;64.08
41234;BME280;26968;42.686;23.352;2023-10-31T08:34:10;95267.69;;;13.86;63.48
41234;BME280;26968;42.686;23.352;2023-10-31T08:36:36;95276.22;;;14.02;63.39
41234;BME280;26968;42.686;23.352;2023-10-31T08:39:01;95281.69;;;14.11;63.20
41234;BME280;26968;42.686;23.352;2023-10-31T08:41:27;95270.91;;;14.16;63.00
41234;BME280;26968;42.686;23.352;2023-10-31T08:43:52;95242.94;;;14.00;62.69
41234;BME280;26968;42.686;23.352;2023-10-31T08:46:19;95255.22;;;14.14;62.57
41234;BME280;26968;42.686;23.352;2023-10-31T08:48:44;95218.25;;;14.08;62.38
41234;BME280;26968;42.686;23.352;2023-10-31T08:51:09;95250.91;;;14.32;61.88
41234;BME280;26968;42.686;23.352;2023-10-31T08:53:35;95249.16;;;14.41;61.70
41234;BME280;26968;42.686;23.352;2023-10-31T08:56:00;95239.56;;;14.40;61.97
41234;BME280;26968;42.686;23.352;2023-10-31T08:58:27;95242.44;;;14.57;62.34
41234;BME280;26968;42.686;23.352;2023-10-31T09:00:53;95237.69;;;14.54;62.08
41234;BME280;26968;42.686;23.352;2023-10-31T09:03:19;95235.94;;;14.63;61.99
41234;BME280;26968;42.686;23.352;2023-10-31T09:05:44;95243.13;;;14.77;61.56
41234;BME280;26968;42.686;23.352;2023-10-31T09:08:09;95231.16;;;14.74;61.69
41234;BME280;26968;42.686;23.352;2023-10-31T09:10:36;95218.69;;;14.83;61.35
41234;BME280;26968;42.686;23.352;2023-10-31T09:13:04;95204.06;;;14.81;61.24
41234;BME280;26968;42.686;23.352;2023-10-31T09:15:30;95195.84;;;14.91;61.13
41234;BME280;26968;42.686;23.352;2023-10-31T09:17:56;95168.56;;;14.80;61.12
41234;BME280;26968;42.686;23.352;2023-10-31T09:20:21;95190.50;;;14.91;61.34
41234;BME280;26968;42.686;23.352;2023-10-31T09:22:46;95186.22;;;15.03;61.28
41234;BME280;26968;42.686;23.352;2023-10-31T09:25:12;95172.97;;;14.98;60.94
41234;BME280;26968;42.686;23.352;2023-10-31T09:27:40;95200.72;;;15.25;60.29
41234;BME280;26968;42.686;23.352;2023-10-31T09:30:06;95181.69;;;15.26;59.87
41234;BME280;26968;42.686;23.352;2023-10-31T09:32:31;95202.13;;;15.44;59.67
41234;BME280;26968;42.686;23.352;2023-10-31T09:34:57;95161.31;;;15.30;59.50
41234;BME280;26968;42.686;23.352;2023-10-31T09:37:23;95161.06;;;15.40;59.31
41234;BME280;26968;42.686;23.352;2023-10-31T09:39:48;95160.66;;;15.47;59.52
41234;BME280;26968;42.686;23.352;2023-10-31T09:42:14;95156.56;;;15.50;59.62
41234;BME280;26968;42.686;23.352;2023-10-31T09:44:39;95078.06;;;15.15;58.81
41234;BME280;26968;42.686;23.352;2023-10-31T09:47:06;95159.47;;;15.84;58.49
41234;BME280;26968;42.686;23.352;2023-10-31T09:49:31;95128.97;;;15.85;58.10
41234;BME280;26968;42.686;23.352;2023-10-31T09:51:57;95072.72;;;15.68;57.81
41234;BME280;26968;42.686;23.352;2023-10-31T09:54:25;95100.22;;;16.56;57.24
41234;BME280;26968;42.686;23.352;2023-10-31T09:56:51;95092.03;;;17.64;55.30
41234;BME280;26968;42.686;23.352;2023-10-31T09:59:18;95086.69;;;18.70;51.84
41234;BME280;26968;42.686;23.352;2023-10-31T10:01:44;95092.13;;;19.89;47.91
41234;BME280;26968;42.686;23.352;2023-10-31T10:04:10;95103.25;;;20.85;45.69
41234;BME280;26968;42.686;23.352;2023-10-31T10:06:40;95101.34;;;21.81;42.95
41234;BME280;26968;42.686;23.352;2023-10-31T10:09:05;95110.94;;;22.73;41.61
41234;BME280;26968;42.686;23.352;2023-10-31T10:11:33;95093.88;;;23.42;40.04
41234;BME280;26968;42.686;23.352;2023-10-31T10:13:59;95085.50;;;23.90;38.37
41234;BME280;26968;42.686;23.352;2023-10-31T10:16:30;95058.16;;;23.95;38.06
41234;BME280;26968;42.686;23.352;2023-10-31T10:18:55;95089.94;;;24.20;37.09
41234;BME280;26968;42.686;23.352;2023-10-31T10:21:21;95071.94;;;24.32;36.67
41234;BME280;26968;42.686;23.352;2023-10-31T10:23:47;95045.13;;;24.04;36.57
41234;BME280;26968;42.686;23.352;2023-10-31T10:26:14;95076.47;;;24.24;36.28
41234;BME280;26968;42.686;23.352;2023-10-31T10:28:40;95059.09;;;24.06;36.15
41234;BME280;26968;42.686;23.352;2023-10-31T10:31:05;95056.84;;;23.66;36.83
41234;BME280;26968;42.686;23.352;2023-10-31T10:33:33;95067.66;;;23.66;37.27
41234;BME280;26968;42.686;23.352;2023-10-31T10:35:59;95067.19;;;23.41;37.49
41234;BME280;26968;42.686;23.352;2023-10-31T10:38:25;95063.78;;;23.25;37.34
41234;BME280;26968;42.686;23.352;2023-10-31T10:40:53;95049.66;;;22.96;36.83
41234;BME280;26968;42.686;23.352;2023-10-31T10:43:22;95062.03;;;22.78;37.29
41234;BME280;26968;42.686;23.352;2023-10-31T10:45:53;95041.34;;;22.86;37.32
41234;BME280;26968;42.686;23.352;2023-10-31T10:48:21;95020.16;;;22.72;37.00
41234;BME280;26968;42.686;23.352;2023-10-31T10:50:54;95034.38;;;22.85;37.59
41234;BME280;26968;42.686;23.352;2023-10-31T10:53:24;95014.97;;;22.63;37.36
41234;BME280;26968;42.686;23.352;2023-10-31T10:56:09;95011.44;;;22.44;37.39
41234;BME280;26968;42.686;23.352;2023-10-31T10:58:56;95014.56;;;22.46;36.68
41234;BME280;26968;42.686;23.352;2023-10-31T11:01:26;94990.44;;;22.37;35.94
41234;BME280;26968;42.686;23.352;2023-10-31T11:03:55;94966.69;;;22.27;35.64
41234;BME280;26968;42.686;23.352;2023-10-31T11:06:21;94941.97;;;22.09;35.95
41234;BME280;26968;42.686;23.352;2023-10-31T11:08:47;95010.53;;;22.55;35.68
41234;BME280;26968;42.686;23.352;2023-10-31T11:11:13;95004.34;;;22.55;35.73
41234;BME280;26968;42.686;23.352;2023-10-31T11:13:45;94950.34;;;22.20;35.87
41234;BME280;26968;42.686;23.352;2023-10-31T11:19:01;94988.88;;;22.36;35.64
41234;BME280;26968;42.686;23.352;2023-10-31T11:21:28;94977.16;;;22.13;35.91
41234;BME280;26968;42.686;23.352;2023-10-31T11:23:59;94964.38;;;22.10;36.30
41234;BME280;26968;42.686;23.352;2023-10-31T11:26:30;94975.97;;;22.10;36.02
41234;BME280;26968;42.686;23.352;2023-10-31T11:29:10;94960.78;;;22.06;36.32
41234;BME280;26968;42.686;23.352;2023-10-31T11:31:37;94956.09;;;21.87;36.81
41234;BME280;26968;42.686;23.352;2023-10-31T11:34:03;94942.94;;;21.85;36.77
41234;BME280;26968;42.686;23.352;2023-10-31T11:36:32;94925.13;;;21.65;36.73
41234;BME280;26968;42.686;23.352;2023-10-31T11:39:14;94913.38;;;21.42;37.26
41234;BME280;26968;42.686;23.352;2023-10-31T11:41:45;94945.13;;;21.48;37.72
41234;BME280;26968;42.686;23.352;2023-10-31T11:44:15;94942.69;;;21.59;37.89
41234;BME280;26968;42.686;23.352;2023-10-31T11:46:40;94921.13;;;21.43;38.02
41234;BME280;26968;42.686;23.352;2023-10-31T11:49:06;94904.97;;;21.15;38.45
41234;BME280;26968;42.686;23.352;2023-10-31T11:51:32;94870.63;;;21.12;38.26
41234;BME280;26968;42.686;23.352;2023-10-31T11:54:00;94923.81;;;21.43;38.47
41234;BME280;26968;42.686;23.352;2023-10-31T11:56:27;94918.50;;;21.31;39.10
41234;BME280;26968;42.686;23.352;2023-10-31T11:58:57;94916.75;;;21.39;39.08
41234;BME280;26968;42.686;23.352;2023-10-31T12:01:22;94899.44;;;21.24;39.13
41234;BME280;26968;42.686;23.352;2023-10-31T12:03:48;94911.06;;;21.12;39.60
41234;BME280;26968;42.686;23.352;2023-10-31T12:06:15;94877.97;;;20.84;40.05
41234;BME280;26968;42.686;23.352;2023-10-31T12:08:42;94919.06;;;21.09;39.72
41234;BME280;26968;42.686;23.352;2023-10-31T12:11:12;94874.16;;;20.85;39.89
41234;BME280;26968;42.686;23.352;2023-10-31T12:13:40;94877.47;;;20.94;40.06
41234;BME280;26968;42.686;23.352;2023-10-31T12:16:07;94773.53;;;20.22;40.49
41234;BME280;26968;42.686;23.352;2023-10-31T12:18:37;94841.88;;;20.73;40.53
41234;BME280;26968;42.686;23.352;2023-10-31T12:21:06;94815.41;;;20.47;41.04
41234;BME280;26968;42.686;23.352;2023-10-31T12:23:33;94875.63;;;20.83;40.87
41234;BME280;26968;42.686;23.352;2023-10-31T12:25:58;94898.34;;;20.97;41.03
41234;BME280;26968;42.686;23.352;2023-10-31T12:28:25;94879.50;;;20.97;40.96
41234;BME280;26968;42.686;23.352;2023-10-31T12:30:53;94878.06;;;20.88;39.95
41234;BME280;26968;42.686;23.352;2023-10-31T12:33:20;94888.47;;;21.17;39.51
41234;BME280;26968;42.686;23.352;2023-10-31T12:35:47;94807.81;;;20.80;39.20
41234;BME280;26968;42.686;23.352;2023-10-31T12:38:14;94877.19;;;21.43;39.52
41234;BME280;26968;42.686;23.352;2023-10-31T12:40:41;94878.03;;;21.63;39.31
41234;BME280;26968;42.686;23.352;2023-10-31T12:43:08;94844.56;;;21.67;38.78
41234;BME280;26968;42.686;23.352;2023-10-31T12:45:35;94849.41;;;21.93;38.78
41234;BME280;26968;42.686;23.352;2023-10-31T12:48:06;94855.13;;;22.07;38.78